sensor_id;sensor_type;location;lat;lon;timestamp;temperature;humidity
16728;DHT22;8482;54.396;18.590;2023-12-04T14:52:02;1.50;99.90
16728;DHT22;8482;54.396;18.590;2023-12-04T14:54:29;1.40;99.90
16728;DHT22;8482;54.396;18.590;2023-12-04T14:57:14;1.50;99.90
16728;DHT22;8482;54.396;18.590;2023-12-04T14:59:55;1.40;99.90
16728;DHT22;8482;54.396;18.590;2023-12-04T15:02:39;1.40;99.90
16728;DHT22;8482;54.396;18.590;2023-12-04T15:05:30;1.40;99.90
16728;DHT22;8482;54.396;18.590;2023-12-04T15:08:05;1.40;99.90
16728;DHT22;8482;54.396;18.590;2023-12-04T15:10:50;1.40;99.90
16728;DHT22;8482;54.396;18.590;2023-12-04T15:13:25;1.40;99.90
16728;DHT22;8482;54.396;18.590;2023-12-04T15:16:07;1.40;99.90
16728;DHT22;8482;54.396;18.590;2023-12-04T15:18:39;1.40;99.90
16728;DHT22;8482;54.396;18.590;2023-12-04T15:21:37;1.40;99.90
16728;DHT22;8482;54.396;18.590;2023-12-04T15:24:03;1.40;99.90
16728;DHT22;8482;54.396;18.590;2023-12-04T15:26:29;1.40;99.90
16728;DHT22;8482;54.396;18.590;2023-12-04T15:28:56;1.50;99.90
16728;DHT22;8482;54.396;18.590;2023-12-04T15:31:21;1.50;99.90
16728;DHT22;8482;54.396;18.590;2023-12-04T15:33:47;1.50;99.90
16728;DHT22;8482;54.396;18.590;2023-12-04T15:36:13;1.50;99.90
16728;DHT22;8482;54.396;18.590;2023-12-04T15:38:39;1.50;99.90
16728;DHT22;8482;54.396;18.590;2023-12-04T15:41:05;1.50;99.90
16728;DHT22;8482;54.396;18.590;2023-12-04T15:43:31;1.50;99.90
16728;DHT22;8482;54.396;18.590;2023-12-04T15:45:57;1.40;99.90
16728;DHT22;8482;54.396;18.590;2023-12-04T15:48:23;1.40;99.90
16728;DHT22;8482;54.396;18.590;2023-12-04T15:50:49;1.40;99.90
16728;DHT22;8482;54.396;18.590;2023-12-04T15:53:14;1.40;99.90
16728;DHT22;8482;54.396;18.590;2023-12-04T15:55:40;1.40;99.90
16728;DHT22;8482;54.396;18.590;2023-12-04T15:58:06;1.40;99.90
16728;DHT22;8482;54.396;18.590;2023-12-04T16:00:32;1.40;99.90
16728;DHT22;8482;54.396;18.590;2023-12-04T16:02:59;1.40;99.90
16728;DHT22;8482;54.396;18.590;2023-12-04T16:05:26;1.40;99.90
16728;DHT22;8482;54.396;18.590;2023-12-04T16:07:52;1.40;99.90
16728;DHT22;8482;54.396;18.590;2023-12-04T16:10:17;1.40;99.90
16728;DHT22;8482;54.396;18.590;2023-12-04T16:12:43;1.40;99.90
16728;DHT22;8482;54.396;18.590;2023-12-04T16:15:10;1.40;99.90
16728;DHT22;8482;54.396;18.590;2023-12-04T16:17:36;1.40;99.90
16728;DHT22;8482;54.396;18.590;2023-12-04T16:20:04;1.40;99.90
16728;DHT22;8482;54.396;18.590;2023-12-04T16:22:38;1.40;99.90
16728;DHT22;8482;54.396;18.590;2023-12-04T16:25:07;1.40;99.90
16728;DHT22;8482;54.396;18.590;2023-12-04T16:27:33;1.30;99.90
16728;DHT22;8482;54.396;18.590;2023-12-04T16:29:59;1.30;99.90
16728;DHT22;8482;54.396;18.590;2023-12-04T16:32:25;1.30;99.90
16728;DHT22;8482;54.396;18.590;2023-12-04T16:34:51;1.30;99.90
16728;DHT22;8482;54.396;18.590;2023-12-04T16:37:16;1.30;99.90
16728;DHT22;8482;54.396;18.590;2023-12-04T16:39:42;1.30;99.90
16728;DHT22;8482;54.396;18.590;2023-12-04T16:42:08;1.30;99.90
16728;DHT22;8482;54.396;18.590;2023-12-04T16:44:34;1.30;99.90
16728;DHT22;8482;54.396;18.590;2023-12-04T16:47:01;1.30;99.90
16728;DHT22;8482;54.396;18.590;2023-12-04T16:49:26;1.30;99.90
16728;DHT22;8482;54.396;18.590;2023-12-04T16:51:52;1.30;99.90
16728;DHT22;8482;54.396;18.590;2023-12-04T16:54:18;1.30;99.90
16728;DHT22;8482;54.396;18.590;2023-12-04T16:56:47;1.30;99.90
16728;DHT22;8482;54.396;18.590;2023-12-04T16:59:15;1.30;99.90
16728;DHT22;8482;54.396;18.590;2023-12-04T17:01:42;1.30;99.90
16728;DHT22;8482;54.396;18.590;2023-12-04T17:04:07;1.30;99.90
16728;DHT22;8482;54.396;18.590;2023-12-04T17:06:33;1.30;99.90
16728;DHT22;8482;54.396;18.590;2023-12-04T17:08:59;1.30;99.90
16728;DHT22;8482;54.396;18.590;2023-12-04T17:11:25;1.30;99.90
16728;DHT22;8482;54.396;18.590;2023-12-04T17:13:51;1.30;99.90
16728;DHT22;8482;54.396;18.590;2023-12-04T17:16:17;1.20;99.90
16728;DHT22;8482;54.396;18.590;2023-12-04T17:18:44;1.20;99.90
16728;DHT22;8482;54.396;18.590;2023-12-04T17:21:12;1.20;99.90
16728;DHT22;8482;54.396;18.590;2023-12-04T17:23:38;1.20;99.90
16728;DHT22;8482;54.396;18.590;2023-12-04T17:26:04;1.20;99.90
16728;DHT22;8482;54.396;18.590;2023-12-04T17:28:30;1.10;99.90
16728;DHT22;8482;54.396;18.590;2023-12-04T17:30:56;1.10;99.90
16728;DHT22;8482;54.396;18.590;2023-12-04T17:33:22;1.10;99.90
16728;DHT22;8482;54.396;18.590;2023-12-04T17:35:47;1.10;99.90
16728;DHT22;8482;54.396;18.590;2023-12-04T17:38:13;1.00;99.90
16728;DHT22;8482;54.396;18.590;2023-12-04T17:40:39;1.00;99.90
16728;DHT22;8482;54.396;18.590;2023-12-04T17:43:05;1.00;99.90
16728;DHT22;8482;54.396;18.590;2023-12-04T17:45:32;0.90;99.90
16728;DHT22;8482;54.396;18.590;2023-12-04T17:47:58;0.90;99.90
16728;DHT22;8482;54.396;18.590;2023-12-04T17:50:26;0.80;99.90
16728;DHT22;8482;54.396;18.590;2023-12-04T17:52:51;0.80;99.90
16728;DHT22;8482;54.396;18.590;2023-12-04T17:55:20;0.80;99.90
16728;DHT22;8482;54.396;18.590;2023-12-04T17:57:49;0.70;99.90
16728;DHT22;8482;54.396;18.590;2023-12-04T18:00:17;0.70;99.90
16728;DHT22;8482;54.396;18.590;2023-12-04T18:02:44;0.70;99.90
16728;DHT22;8482;54.396;18.590;2023-12-04T18:05:18;0.70;99.90
16728;DHT22;8482;54.396;18.590;2023-12-04T18:07:46;0.60;99.90
16728;DHT22;8482;54.396;18.590;2023-12-04T18:10:12;0.60;99.90
16728;DHT22;8482;54.396;18.590;2023-12-04T18:12:38;0.60;99.90
16728;DHT22;8482;54.396;18.590;2023-12-04T18:15:10;0.50;99.90
16728;DHT22;8482;54.396;18.590;2023-12-04T18:17:37;0.50;99.90
16728;DHT22;8482;54.396;18.590;2023-12-04T18:22:35;0.40;99.90
16728;DHT22;8482;54.396;18.590;2023-12-04T18:25:02;0.40;99.90
16728;DHT22;8482;54.396;18.590;2023-12-04T18:27:29;0.40;99.90
16728;DHT22;8482;54.396;18.590;2023-12-04T18:29:55;0.30;99.90
16728;DHT22;8482;54.396;18.590;2023-12-04T18:32:21;0.30;99.90
16728;DHT22;8482;54.396;18.590;2023-12-04T18:34:47;0.30;99.90
16728;DHT22;8482;54.396;18.590;2023-12-04T18:37:32;0.20;99.90
16728;DHT22;8482;54.396;18.590;2023-12-04T18:40:08;0.20;99.90
16728;DHT22;8482;54.396;18.590;2023-12-04T18:42:38;0.20;99.90
16728;DHT22;8482;54.396;18.590;2023-12-04T18:45:05;0.30;99.90
16728;DHT22;8482;54.396;18.590;2023-12-04T18:47:34;0.20;99.90
16728;DHT22;8482;54.396;18.590;2023-12-04T18:50:01;0.20;99.90
16728;DHT22;8482;54.396;18.590;2023-12-04T18:52:28;0.20;99.90
16728;DHT22;8482;54.396;18.590;2023-12-04T18:54:55;0.20;99.90
16728;DHT22;8482;54.396;18.590;2023-12-04T18:57:21;0.30;99.90
16728;DHT22;8482;54.396;18.590;2023-12-04T18:59:46;0.20;99.90
16728;DHT22;8482;54.396;18.590;2023-12-04T19:02:12;0.20;99.90
16728;DHT22;8482;54.396;18.590;2023-12-04T19:04:38;0.20;99.90
16728;DHT22;8482;54.396;18.590;2023-12-04T19:07:04;0.10;99.90
16728;DHT22;8482;54.396;18.590;2023-12-04T19:09:30;0.10;99.90
16728;DHT22;8482;54.396;18.590;2023-12-04T19:11:56;0.10;99.90
16728;DHT22;8482;54.396;18.590;2023-12-04T19:14:22;0.10;99.90
16728;DHT22;8482;54.396;18.590;2023-12-04T19:16:48;0.10;99.90
16728;DHT22;8482;54.396;18.590;2023-12-04T19:19:14;0.10;99.90
16728;DHT22;8482;54.396;18.590;2023-12-04T19:21:39;0.10;99.90
16728;DHT22;8482;54.396;18.590;2023-12-04T19:24:05;0.10;99.90
16728;DHT22;8482;54.396;18.590;2023-12-04T19:26:31;0.10;99.90
16728;DHT22;8482;54.396;18.590;2023-12-04T19:28:58;0.10;99.90
16728;DHT22;8482;54.396;18.590;2023-12-04T19:31:24;0.10;99.90
16728;DHT22;8482;54.396;18.590;2023-12-04T19:33:50;0.10;99.90
16728;DHT22;8482;54.396;18.590;2023-12-04T19:36:18;0.00;99.90
16728;DHT22;8482;54.396;18.590;2023-12-04T19:38:44;0.00;99.90
16728;DHT22;8482;54.396;18.590;2023-12-04T19:41:10;0.00;99.90
16728;DHT22;8482;54.396;18.590;2023-12-04T19:43:37;-0.10;99.90
16728;DHT22;8482;54.396;18.590;2023-12-04T19:46:07;-0.10;99.90
16728;DHT22;8482;54.396;18.590;2023-12-04T19:48:33;-0.10;99.90
16728;DHT22;8482;54.396;18.590;2023-12-04T19:51:03;-0.10;99.90
16728;DHT22;8482;54.396;18.590;2023-12-04T19:53:29;-0.20;99.90
16728;DHT22;8482;54.396;18.590;2023-12-04T19:55:55;-0.20;99.90
16728;DHT22;8482;54.396;18.590;2023-12-04T19:58:21;-0.20;99.90
16728;DHT22;8482;54.396;18.590;2023-12-04T20:00:47;-0.20;99.90
16728;DHT22;8482;54.396;18.590;2023-12-04T20:03:13;-0.20;99.90
16728;DHT22;8482;54.396;18.590;2023-12-04T20:05:39;-0.20;99.90
16728;DHT22;8482;54.396;18.590;2023-12-04T20:08:04;-0.20;99.90
16728;DHT22;8482;54.396;18.590;2023-12-04T20:10:30;-0.20;99.90
16728;DHT22;8482;54.396;18.590;2023-12-04T20:12:56;-0.20;99.90
16728;DHT22;8482;54.396;18.590;2023-12-04T20:15:22;-0.30;99.90
16728;DHT22;8482;54.396;18.590;2023-12-04T20:17:49;-0.30;99.90
16728;DHT22;8482;54.396;18.590;2023-12-04T20:20:17;-0.30;99.90
16728;DHT22;8482;54.396;18.590;2023-12-04T20:22:44;-0.40;99.90
16728;DHT22;8482;54.396;18.590;2023-12-04T20:25:10;-0.40;99.90
16728;DHT22;8482;54.396;18.590;2023-12-04T20:27:36;-0.40;99.90
16728;DHT22;8482;54.396;18.590;2023-12-04T20:30:02;-0.50;99.90
16728;DHT22;8482;54.396;18.590;2023-12-04T20:32:28;-0.50;99.90
16728;DHT22;8482;54.396;18.590;2023-12-04T20:34:55;-0.60;99.90
16728;DHT22;8482;54.396;18.590;2023-12-04T20:37:21;-0.60;99.90
16728;DHT22;8482;54.396;18.590;2023-12-04T20:39:47;-0.60;99.90
16728;DHT22;8482;54.396;18.590;2023-12-04T20:42:12;-0.70;99.90
16728;DHT22;8482;54.396;18.590;2023-12-04T20:44:38;-0.70;99.90
16728;DHT22;8482;54.396;18.590;2023-12-04T20:47:04;-0.70;99.90
16728;DHT22;8482;54.396;18.590;2023-12-04T20:49:31;-0.80;99.90
16728;DHT22;8482;54.396;18.590;2023-12-04T20:51:57;-0.70;99.90
16728;DHT22;8482;54.396;18.590;2023-12-04T20:54:23;-0.80;99.90
16728;DHT22;8482;54.396;18.590;2023-12-04T20:56:49;-0.80;99.90
16728;DHT22;8482;54.396;18.590;2023-12-04T20:59:15;-0.90;99.90
16728;DHT22;8482;54.396;18.590;2023-12-04T21:01:41;-0.80;99.90
16728;DHT22;8482;54.396;18.590;2023-12-04T21:04:08;-0.90;99.90
16728;DHT22;8482;54.396;18.590;2023-12-04T21:06:34;-0.80;99.90
16728;DHT22;8482;54.396;18.590;2023-12-04T21:09:02;-0.90;99.90
16728;DHT22;8482;54.396;18.590;2023-12-04T21:11:29;-0.90;99.90
16728;DHT22;8482;54.396;18.590;2023-12-04T21:13:55;-0.90;99.90
16728;DHT22;8482;54.396;18.590;2023-12-04T21:16:21;-0.90;99.90
16728;DHT22;8482;54.396;18.590;2023-12-04T21:18:47;-0.90;99.90
16728;DHT22;8482;54.396;18.590;2023-12-04T21:21:15;-0.90;99.90
16728;DHT22;8482;54.396;18.590;2023-12-04T21:23:41;-1.00;99.90
16728;DHT22;8482;54.396;18.590;2023-12-04T21:26:07;-1.00;99.90
16728;DHT22;8482;54.396;18.590;2023-12-04T21:28:33;-0.90;99.90
16728;DHT22;8482;54.396;18.590;2023-12-04T21:30:59;-0.90;99.90
16728;DHT22;8482;54.396;18.590;2023-12-04T21:33:25;-0.90;99.90
16728;DHT22;8482;54.396;18.590;2023-12-04T21:35:51;-1.00;99.90
16728;DHT22;8482;54.396;18.590;2023-12-04T21:38:17;-0.90;99.90
16728;DHT22;8482;54.396;18.590;2023-12-04T21:40:43;-1.00;99.90
16728;DHT22;8482;54.396;18.590;2023-12-04T21:43:10;-1.00;99.90
16728;DHT22;8482;54.396;18.590;2023-12-04T21:45:36;-1.00;99.90
16728;DHT22;8482;54.396;18.590;2023-12-04T21:48:02;-1.10;99.90
16728;DHT22;8482;54.396;18.590;2023-12-04T21:50:29;-1.10;99.90
16728;DHT22;8482;54.396;18.590;2023-12-04T21:52:56;-1.10;99.90
16728;DHT22;8482;54.396;18.590;2023-12-04T21:55:21;-1.10;99.90
16728;DHT22;8482;54.396;18.590;2023-12-04T21:57:47;-1.10;99.90
16728;DHT22;8482;54.396;18.590;2023-12-04T22:00:14;-1.10;99.90
16728;DHT22;8482;54.396;18.590;2023-12-04T22:02:40;-1.20;99.90
16728;DHT22;8482;54.396;18.590;2023-12-04T22:05:07;-1.20;99.90
16728;DHT22;8482;54.396;18.590;2023-12-04T22:07:33;-1.20;99.90
